Time;durP1;ratioP1;P1;durP2;ratioP2;P2;SDS_P1;SDS_P2;PMS_P1;PMS_P2;Temp;Humidity;BMP_temperature;BMP_pressure;BME280_temperature;BME280_humidity;BME280_pressure;Samples;Min_cycle;Max_cycle;Signal;HPM_P1;HPM_P2
2022/09/08 00:01:58;;;;;;;4.55;3.80;;;;;;;;;;5038586;28;20025;-66
2022/09/08 00:04:24;;;;;;;5.47;3.90;;;;;;;;;;5056241;28;20116;-66
2022/09/08 00:06:50;;;;;;;5.97;4.07;;;;;;;;;;5056275;28;20372;-66
2022/09/08 00:09:15;;;;;;;6.18;4.32;;;;;;;;;;5056337;28;20065;-66
2022/09/08 00:11:40;;;;;;;6.97;4.22;;;;;;;;;;5056330;28;20024;-66
2022/09/08 00:14:07;;;;;;;6.30;4.00;;;;;;;;;;5056076;28;20488;-66
2022/09/08 00:16:32;;;;;;;5.63;3.80;;;;;;;;;;5056019;28;20021;-66
2022/09/08 00:18:58;;;;;;;4.63;3.92;;;;;;;;;;5056013;28;20029;-66
2022/09/08 00:21:24;;;;;;;5.13;3.63;;;;;;;;;;5055930;28;20362;-66
2022/09/08 00:23:50;;;;;;;5.68;4.10;;;;;;;;;;5055827;28;20044;-66
2022/09/08 00:26:16;;;;;;;5.50;4.10;;;;;;;;;;5055904;28;20013;-66
2022/09/08 00:28:41;;;;;;;5.40;3.90;;;;;;;;;;5055851;28;20033;-66
2022/09/08 00:31:06;;;;;;;6.25;4.22;;;;;;;;;;5037918;28;20070;-66
2022/09/08 00:33:32;;;;;;;6.05;4.45;;;;;;;;;;5055745;28;20107;-66
2022/09/08 00:35:58;;;;;;;8.10;4.13;;;;;;;;;;5055659;28;20479;-66
2022/09/08 00:38:24;;;;;;;8.23;4.32;;;;;;;;;;5055591;28;20032;-66
2022/09/08 00:40:49;;;;;;;5.60;4.70;;;;;;;;;;5055580;28;20021;-66
2022/09/08 00:43:47;;;;;;;6.65;4.20;;;;;;;;;;5055487;28;20473;-66
2022/09/08 00:46:21;;;;;;;5.35;3.97;;;;;;;;;;5021857;28;20051;-66
2022/09/08 00:49:08;;;;;;;7.10;4.40;;;;;;;;;;5055479;28;20037;-66
2022/09/08 00:51:35;;;;;;;5.10;4.38;;;;;;;;;;5071085;23;20386;-62
2022/09/08 00:54:01;;;;;;;6.85;4.68;;;;;;;;;;5055646;28;20028;-63
2022/09/08 00:56:27;;;;;;;5.13;4.63;;;;;;;;;;5037561;28;20040;-63
2022/09/08 00:58:53;;;;;;;6.32;4.13;;;;;;;;;;5054099;28;20052;-62
2022/09/08 01:01:19;;;;;;;5.75;4.53;;;;;;;;;;5055541;28;20453;-63
2022/09/08 01:03:45;;;;;;;6.20;4.50;;;;;;;;;;5055387;28;20082;-63
2022/09/08 01:12:45;;;;;;;7.43;4.30;;;;;;;;;;5055527;28;20032;-62
2022/09/08 01:15:18;;;;;;;6.47;4.63;;;;;;;;;;5037472;28;20033;-63
2022/09/08 01:17:44;;;;;;;5.45;4.60;;;;;;;;;;5055153;28;20033;-62
2022/09/08 01:20:09;;;;;;;6.40;4.43;;;;;;;;;;5055145;28;20024;-62
2022/09/08 01:22:41;;;;;;;4.95;4.25;;;;;;;;;;5037245;28;20029;-62
2022/09/08 01:25:16;;;;;;;7.03;4.75;;;;;;;;;;5037553;28;20033;-63
2022/09/08 01:27:44;;;;;;;6.75;4.25;;;;;;;;;;5054737;28;20104;-63
2022/09/08 01:30:10;;;;;;;6.40;4.85;;;;;;;;;;5054945;28;20013;-63
2022/09/08 01:32:37;;;;;;;5.70;4.50;;;;;;;;;;5054928;28;20032;-62
2022/09/08 01:35:03;;;;;;;7.78;4.90;;;;;;;;;;5054584;28;20020;-62
2022/09/08 01:37:28;;;;;;;7.32;5.03;;;;;;;;;;5054548;28;20033;-63
2022/09/08 01:39:53;;;;;;;8.20;4.95;;;;;;;;;;5054778;28;20045;-63
2022/09/08 01:42:19;;;;;;;8.18;4.60;;;;;;;;;;5054423;28;20495;-62
2022/09/08 01:44:44;;;;;;;8.68;5.25;;;;;;;;;;5054856;28;20082;-63
2022/09/08 01:47:10;;;;;;;6.63;4.53;;;;;;;;;;5054602;28;20044;-62
2022/09/08 01:49:35;;;;;;;10.52;4.82;;;;;;;;;;5036492;28;20021;-63
2022/09/08 01:52:01;;;;;;;7.95;5.70;;;;;;;;;;5054307;28;20064;-62
2022/09/08 01:54:27;;;;;;;5.93;4.63;;;;;;;;;;5054506;28;20107;-62
2022/09/08 01:56:54;;;;;;;8.32;5.03;;;;;;;;;;5054473;28;20083;-62
2022/09/08 01:59:19;;;;;;;8.23;5.05;;;;;;;;;;5054226;28;20025;-62
2022/09/08 02:01:44;;;;;;;6.97;5.28;;;;;;;;;;5054401;28;20655;-63
2022/09/08 02:04:10;;;;;;;9.18;5.07;;;;;;;;;;5054023;28;20024;-62
2022/09/08 02:06:35;;;;;;;8.75;5.05;;;;;;;;;;5036259;28;20087;-62
2022/09/08 02:09:00;;;;;;;7.05;4.47;;;;;;;;;;5053927;28;20457;-62
2022/09/08 02:11:26;;;;;;;7.05;5.15;;;;;;;;;;5053960;28;20032;-62
2022/09/08 02:13:51;;;;;;;6.88;5.75;;;;;;;;;;5036455;28;20021;-63
2022/09/08 02:16:17;;;;;;;7.63;5.40;;;;;;;;;;5036406;28;20027;-63
2022/09/08 02:18:42;;;;;;;7.90;5.10;;;;;;;;;;5053854;28;20469;-63
2022/09/08 02:21:12;;;;;;;7.47;5.40;;;;;;;;;;5036120;28;20033;-63
2022/09/08 02:23:39;;;;;;;9.38;5.22;;;;;;;;;;5054113;28;20107;-62
2022/09/08 02:26:04;;;;;;;8.10;5.53;;;;;;;;;;5053746;28;20108;-63
2022/09/08 02:28:30;;;;;;;10.07;5.25;;;;;;;;;;5053686;28;20106;-62
2022/09/08 02:31:02;;;;;;;7.95;5.65;;;;;;;;;;5053538;28;20025;-63
2022/09/08 02:33:28;;;;;;;8.35;5.65;;;;;;;;;;5053889;28;20120;-63
2022/09/08 02:35:53;;;;;;;12.65;6.05;;;;;;;;;;5053843;28;20027;-62
2022/09/08 02:38:20;;;;;;;7.93;5.15;;;;;;;;;;5053849;28;20112;-62
2022/09/08 02:40:45;;;;;;;7.07;5.38;;;;;;;;;;5053795;28;20021;-62
2022/09/08 02:43:11;;;;;;;7.90;5.38;;;;;;;;;;5053422;28;20037;-63
2022/09/08 02:45:39;;;;;;;9.02;5.70;;;;;;;;;;5053775;28;20028;-62
2022/09/08 02:48:05;;;;;;;9.82;5.78;;;;;;;;;;5068271;23;20057;-62
2022/09/08 02:50:31;;;;;;;10.40;5.80;;;;;;;;;;5099723;22;20118;-66
2022/09/08 02:52:57;;;;;;;9.80;6.53;;;;;;;;;;5073721;28;20142;-66
2022/09/08 02:55:23;;;;;;;9.32;5.97;;;;;;;;;;5055456;28;20048;-66
2022/09/08 02:57:51;;;;;;;8.85;5.78;;;;;;;;;;5073708;28;20028;-66
2022/09/08 03:00:17;;;;;;;10.52;6.18;;;;;;;;;;5073661;28;20029;-66
2022/09/08 03:02:43;;;;;;;8.63;5.75;;;;;;;;;;5073527;28;20035;-66
2022/09/08 03:05:09;;;;;;;12.60;5.65;;;;;;;;;;5055435;28;20017;-63
2022/09/08 03:07:35;;;;;;;10.02;5.63;;;;;;;;;;5073582;28;20395;-63
2022/09/08 03:10:02;;;;;;;7.82;5.40;;;;;;;;;;5073265;28;20066;-64
2022/09/08 03:12:27;;;;;;;11.95;5.53;;;;;;;;;;5055978;28;20033;-63
2022/09/08 03:14:53;;;;;;;9.75;6.07;;;;;;;;;;5073829;28;20086;-63
2022/09/08 03:17:19;;;;;;;7.60;5.63;;;;;;;;;;5073482;28;20037;-63
2022/09/08 03:19:44;;;;;;;9.07;5.75;;;;;;;;;;5073215;28;20017;-63
2022/09/08 03:22:10;;;;;;;9.35;6.15;;;;;;;;;;5075160;28;20036;-63
2022/09/08 03:24:35;;;;;;;8.38;6.03;;;;;;;;;;5077014;28;20029;-63
2022/09/08 03:27:00;;;;;;;11.52;5.85;;;;;;;;;;5077291;28;20040;-63
2022/09/08 03:29:27;;;;;;;9.95;5.90;;;;;;;;;;5059708;28;20020;-63
2022/09/08 03:31:52;;;;;;;9.23;6.32;;;;;;;;;;5076921;28;20031;-63
2022/09/08 03:34:18;;;;;;;9.40;6.10;;;;;;;;;;5077438;28;20021;-63
2022/09/08 03:36:43;;;;;;;9.63;5.78;;;;;;;;;;5058955;28;20028;-63
2022/09/08 03:39:08;;;;;;;8.48;5.90;;;;;;;;;;5077064;28;20020;-63
2022/09/08 03:41:34;;;;;;;9.18;5.95;;;;;;;;;;5076724;28;20522;-63
2022/09/08 03:43:59;;;;;;;7.68;6.03;;;;;;;;;;5076908;28;20030;-63
2022/09/08 03:46:24;;;;;;;10.10;6.45;;;;;;;;;;5076957;28;20029;-63
2022/09/08 03:48:50;;;;;;;12.85;6.70;;;;;;;;;;5076417;28;20017;-64
2022/09/08 03:51:17;;;;;;;10.48;6.18;;;;;;;;;;5092293;28;20060;-63
2022/09/08 03:53:43;;;;;;;9.00;5.80;;;;;;;;;;5076458;28;20059;-63
2022/09/08 03:56:09;;;;;;;11.63;5.80;;;;;;;;;;5076748;28;20044;-63
2022/09/08 03:58:35;;;;;;;9.00;6.20;;;;;;;;;;5058562;28;20025;-63
2022/09/08 04:01:00;;;;;;;8.40;5.60;;;;;;;;;;5076382;28;20029;-63
2022/09/08 04:03:26;;;;;;;10.45;6.45;;;;;;;;;;5076256;28;20077;-63
2022/09/08 04:05:51;;;;;;;10.07;6.35;;;;;;;;;;5076552;28;20115;-63
2022/09/08 04:08:17;;;;;;;9.32;6.00;;;;;;;;;;5076293;28;20371;-63
2022/09/08 04:10:42;;;;;;;10.00;6.38;;;;;;;;;;5076222;28;20025;-63
2022/09/08 04:13:08;;;;;;;10.65;6.38;;;;;;;;;;5059135;28;20467;-63
2022/09/08 04:15:33;;;;;;;9.63;6.05;;;;;;;;;;5076137;28;20029;-63
2022/09/08 04:17:59;;;;;;;10.15;6.10;;;;;;;;;;5076109;28;20060;-63
2022/09/08 04:20:24;;;;;;;11.98;6.68;;;;;;;;;;5076334;28;20487;-63
2022/09/08 04:22:49;;;;;;;8.90;6.65;;;;;;;;;;5075965;28;20024;-63
2022/09/08 04:25:15;;;;;;;8.63;6.25;;;;;;;;;;5076277;28;20033;-63
2022/09/08 04:27:41;;;;;;;8.85;6.03;;;;;;;;;;5076220;28;20012;-63
2022/09/08 04:30:07;;;;;;;10.52;6.97;;;;;;;;;;5058600;28;20036;-63
2022/09/08 04:32:33;;;;;;;12.30;6.63;;;;;;;;;;5057720;28;20028;-63
2022/09/08 04:34:59;;;;;;;8.88;6.68;;;;;;;;;;5076324;28;20437;-63
2022/09/08 04:37:24;;;;;;;9.40;6.00;;;;;;;;;;5076026;28;20060;-63
2022/09/08 04:39:50;;;;;;;10.85;6.20;;;;;;;;;;5075693;28;20059;-63
2022/09/08 04:42:15;;;;;;;11.63;5.97;;;;;;;;;;5075971;28;20361;-63
2022/09/08 04:45:00;;;;;;;7.68;6.10;;;;;;;;;;5091683;22;20463;31
2022/09/08 04:47:59;;;;;;;9.35;5.68;;;;;;;;;;5034109;28;20050;-63
2022/09/08 04:50:25;;;;;;;9.07;6.28;;;;;;;;;;5036109;28;20049;-63
2022/09/08 04:52:50;;;;;;;10.60;5.85;;;;;;;;;;5035788;28;20484;-63
2022/09/08 04:55:15;;;;;;;10.35;6.22;;;;;;;;;;5035853;28;20022;-63
2022/09/08 04:57:41;;;;;;;10.57;6.32;;;;;;;;;;5035966;28;20445;-63
2022/09/08 05:00:07;;;;;;;10.25;6.40;;;;;;;;;;5035378;28;20532;-63
2022/09/08 05:02:32;;;;;;;8.77;6.50;;;;;;;;;;5035315;28;20024;-63
2022/09/08 05:04:58;;;;;;;9.43;6.32;;;;;;;;;;5035485;28;20037;-63
2022/09/08 05:07:23;;;;;;;9.18;6.38;;;;;;;;;;5035148;28;20017;-63
2022/09/08 05:09:49;;;;;;;11.05;6.57;;;;;;;;;;5035461;28;20087;-63
2022/09/08 05:12:14;;;;;;;8.07;6.35;;;;;;;;;;5017345;28;20026;-63
2022/09/08 05:14:39;;;;;;;12.25;6.63;;;;;;;;;;5034221;28;20036;-64
2022/09/08 05:17:05;;;;;;;10.57;6.50;;;;;;;;;;5035068;28;20025;-63
2022/09/08 05:19:31;;;;;;;10.60;6.25;;;;;;;;;;5035260;28;20033;-63
2022/09/08 05:21:56;;;;;;;14.48;6.85;;;;;;;;;;5035512;28;20025;-63
2022/09/08 05:24:26;;;;;;;9.38;6.57;;;;;;;;;;5034780;28;20041;-63
2022/09/08 05:26:51;;;;;;;15.00;7.18;;;;;;;;;;5035127;28;20022;-64
2022/09/08 05:29:16;;;;;;;12.50;7.00;;;;;;;;;;5034803;28;20025;-63
2022/09/08 05:31:42;;;;;;;12.48;7.00;;;;;;;;;;5034769;28;20350;-63
2022/09/08 05:34:08;;;;;;;12.27;6.32;;;;;;;;;;5035266;28;20033;-63
2022/09/08 05:36:34;;;;;;;12.77;6.85;;;;;;;;;;5035226;28;20548;-63
2022/09/08 05:39:00;;;;;;;10.30;6.80;;;;;;;;;;5034902;28;20076;-63
2022/09/08 05:41:25;;;;;;;11.93;6.50;;;;;;;;;;5034858;28;20025;-63
2022/09/08 05:43:54;;;;;;;11.48;6.68;;;;;;;;;;5016518;28;20460;-63
2022/09/08 05:46:20;;;;;;;12.20;6.72;;;;;;;;;;5016354;28;20049;-63
2022/09/08 05:48:46;;;;;;;12.30;6.72;;;;;;;;;;5034725;28;20037;-63
2022/09/08 05:51:13;;;;;;;13.93;6.95;;;;;;;;;;5034690;28;20009;-63
2022/09/08 05:53:38;;;;;;;9.75;7.10;;;;;;;;;;5033080;28;20500;-63
2022/09/08 05:56:05;;;;;;;12.38;6.78;;;;;;;;;;5034359;28;20032;-63
2022/09/08 05:58:31;;;;;;;11.57;6.78;;;;;;;;;;5034525;28;20113;-63
2022/09/08 06:00:57;;;;;;;10.20;6.93;;;;;;;;;;5034512;28;20060;-63
2022/09/08 06:03:23;;;;;;;9.60;6.63;;;;;;;;;;5034103;28;20044;-63
2022/09/08 06:05:48;;;;;;;10.77;7.00;;;;;;;;;;5016805;28;20025;-63
2022/09/08 06:08:13;;;;;;;9.77;6.65;;;;;;;;;;5034370;28;20113;-64
2022/09/08 06:10:39;;;;;;;12.75;7.20;;;;;;;;;;5034051;28;20420;-63
2022/09/08 06:13:04;;;;;;;8.52;6.80;;;;;;;;;;5034568;28;20041;-64
2022/09/08 06:15:30;;;;;;;9.55;6.80;;;;;;;;;;5034249;28;20063;-63
2022/09/08 06:17:56;;;;;;;11.10;6.85;;;;;;;;;;5033966;28;20030;-63
2022/09/08 06:20:22;;;;;;;12.95;7.65;;;;;;;;;;5034431;28;20032;-63
2022/09/08 06:22:47;;;;;;;16.50;6.82;;;;;;;;;;5033822;28;20466;-64
2022/09/08 06:25:12;;;;;;;9.00;6.40;;;;;;;;;;5033846;28;20409;-63
2022/09/08 06:27:43;;;;;;;7.65;6.55;;;;;;;;;;5034344;28;20021;-63
2022/09/08 06:30:10;;;;;;;8.73;6.68;;;;;;;;;;5034095;28;20036;-63
2022/09/08 06:35:11;;;;;;;10.60;7.28;;;;;;;;;;5072236;28;20493;-67
2022/09/08 06:37:39;;;;;;;12.55;7.45;;;;;;;;;;5074207;28;20021;-67
2022/09/08 06:40:10;;;;;;;10.15;7.38;;;;;;;;;;5073864;28;20115;-67
2022/09/08 06:42:53;;;;;;;12.23;6.32;;;;;;;;;;5073569;28;20111;-67
2022/09/08 06:45:23;;;;;;;11.70;6.72;;;;;;;;;;5073821;28;20029;-67
2022/09/08 06:48:07;;;;;;;12.00;6.93;;;;;;;;;;5055561;28;20027;-67
2022/09/08 06:50:34;;;;;;;8.05;6.85;;;;;;;;;;5073774;28;20067;-67
2022/09/08 06:53:05;;;;;;;12.68;7.05;;;;;;;;;;5089420;28;20016;-67
2022/09/08 06:55:35;;;;;;;12.30;7.47;;;;;;;;;;5073843;28;20024;-67
2022/09/08 06:58:06;;;;;;;10.48;6.97;;;;;;;;;;5077946;28;20040;-67
2022/09/08 07:00:43;;;;;;;8.93;5.80;;;;;;;;;;5077586;28;20029;-67
2022/09/08 07:03:33;;;;;;;11.57;7.30;;;;;;;;;;5077705;28;20462;-67
2022/09/08 07:06:07;;;;;;;11.73;6.72;;;;;;;;;;5077478;28;20024;-67
2022/09/08 07:08:38;;;;;;;10.50;7.53;;;;;;;;;;5077683;28;20029;-67
2022/09/08 07:11:09;;;;;;;9.40;7.15;;;;;;;;;;5077649;28;20025;-67
2022/09/08 07:13:40;;;;;;;11.13;6.88;;;;;;;;;;5077261;28;20028;-67
2022/09/08 07:16:08;;;;;;;9.25;7.32;;;;;;;;;;5077546;28;20574;-67
2022/09/08 07:18:38;;;;;;;10.57;6.95;;;;;;;;;;5077481;28;20028;-67
2022/09/08 07:21:11;;;;;;;9.52;7.00;;;;;;;;;;5059339;28;20124;-67
2022/09/08 07:23:37;;;;;;;8.90;6.90;;;;;;;;;;5077605;28;20071;-67
2022/09/08 07:26:04;;;;;;;10.75;7.18;;;;;;;;;;5092830;28;20028;-67
2022/09/08 07:28:33;;;;;;;8.02;6.47;;;;;;;;;;5077060;28;20063;-67
2022/09/08 07:31:02;;;;;;;8.25;7.07;;;;;;;;;;5077278;28;20028;-67
2022/09/08 07:33:36;;;;;;;10.90;6.57;;;;;;;;;;5076985;28;20504;-67
2022/09/08 07:36:10;;;;;;;10.07;6.65;;;;;;;;;;5092857;28;20029;-67
2022/09/08 07:38:41;;;;;;;8.75;6.88;;;;;;;;;;5077398;28;20043;-67
2022/09/08 07:41:10;;;;;;;11.65;6.97;;;;;;;;;;5077075;28;20024;-67
2022/09/08 07:43:35;;;;;;;9.50;6.50;;;;;;;;;;5076649;28;20028;-67
2022/09/08 07:46:16;;;;;;;8.38;6.53;;;;;;;;;;5076989;28;20033;-67
2022/09/08 07:48:55;;;;;;;8.50;6.97;;;;;;;;;;5092726;28;20090;-67
2022/09/08 07:51:24;;;;;;;10.35;6.60;;;;;;;;;;5077181;28;20039;-67
2022/09/08 07:53:55;;;;;;;6.78;6.07;;;;;;;;;;5076573;28;20025;-67
2022/09/08 07:56:20;;;;;;;8.55;6.18;;;;;;;;;;5076800;28;20044;-67
2022/09/08 07:58:50;;;;;;;15.52;7.18;;;;;;;;;;5076454;28;20020;-67
2022/09/08 08:01:18;;;;;;;8.43;6.20;;;;;;;;;;5075217;28;20032;-67
2022/09/08 08:03:44;;;;;;;7.45;6.45;;;;;;;;;;5059218;28;20016;-67
2022/09/08 08:06:27;;;;;;;9.70;6.60;;;;;;;;;;5076636;28;20380;-67
2022/09/08 08:09:16;;;;;;;9.00;6.50;;;;;;;;;;5075574;28;20094;-66
2022/09/08 08:11:44;;;;;;;9.52;6.85;;;;;;;;;;5076380;28;20464;-67
2022/09/08 08:14:21;;;;;;;7.72;6.00;;;;;;;;;;5059075;28;20024;-67
2022/09/08 08:17:05;;;;;;;8.23;6.35;;;;;;;;;;5076155;28;20434;-67
2022/09/08 08:19:37;;;;;;;6.10;5.50;;;;;;;;;;5074866;28;20032;-67
2022/09/08 08:22:06;;;;;;;8.93;6.00;;;;;;;;;;5076049;28;20111;-67
2022/09/08 08:24:39;;;;;;;8.63;5.65;;;;;;;;;;5076496;28;20486;-67
2022/09/08 08:27:15;;;;;;;9.02;6.10;;;;;;;;;;5076520;28;20021;-67
2022/09/08 08:29:41;;;;;;;6.78;6.03;;;;;;;;;;5075905;28;20040;-67
2022/09/08 08:32:16;;;;;;;6.53;5.88;;;;;;;;;;5057934;28;20016;-67
2022/09/08 08:34:47;;;;;;;8.27;5.72;;;;;;;;;;5071066;28;20059;-67
2022/09/08 08:37:21;;;;;;;7.80;5.85;;;;;;;;;;4906988;22;20059;-62
2022/09/08 08:39:48;;;;;;;7.10;5.60;;;;;;;;;;5076247;28;20457;-62
2022/09/08 08:42:33;;;;;;;6.35;5.45;;;;;;;;;;5075961;28;20024;-62
2022/09/08 08:45:09;;;;;;;6.43;5.63;;;;;;;;;;5075560;28;20059;-62
2022/09/08 08:47:55;;;;;;;7.63;5.35;;;;;;;;;;5075834;28;20020;-62
2022/09/08 08:50:26;;;;;;;6.22;5.38;;;;;;;;;;5058006;28;20135;-62
2022/09/08 08:53:10;;;;;;;7.13;5.82;;;;;;;;;;5074268;28;20040;-62
2022/09/08 08:55:36;;;;;;;6.45;5.78;;;;;;;;;;5075692;28;20025;-62
2022/09/08 08:58:20;;;;;;;6.18;5.57;;;;;;;;;;5075678;28;20016;-62
2022/09/08 09:00:45;;;;;;;6.00;5.40;;;;;;;;;;5075616;28;20020;-62
2022/09/08 09:03:10;;;;;;;6.03;5.40;;;;;;;;;;5075465;28;20479;-62
2022/09/08 09:05:48;;;;;;;6.43;5.38;;;;;;;;;;5075501;28;20734;-62
2022/09/08 09:08:31;;;;;;;6.78;6.07;;;;;;;;;;5075460;28;20101;-63
2022/09/08 09:10:56;;;;;;;5.68;5.13;;;;;;;;;;5075141;28;20104;-62
2022/09/08 09:13:33;;;;;;;5.97;5.47;;;;;;;;;;5075054;28;20487;-62
2022/09/08 09:16:07;;;;;;;6.10;5.60;;;;;;;;;;5074999;28;20112;-62
2022/09/08 09:18:32;;;;;;;8.18;5.65;;;;;;;;;;5075113;28;20035;-62
2022/09/08 09:21:00;;;;;;;7.43;5.63;;;;;;;;;;5074369;28;20028;-62
2022/09/08 09:23:34;;;;;;;6.97;5.68;;;;;;;;;;5075071;28;20427;-62
2022/09/08 09:26:06;;;;;;;6.18;5.60;;;;;;;;;;5056965;28;20024;-62
2022/09/08 09:28:34;;;;;;;6.25;5.45;;;;;;;;;;5075302;28;20400;-62
2022/09/08 09:31:15;;;;;;;6.47;5.82;;;;;;;;;;5075115;28;20019;-62
2022/09/08 09:33:40;;;;;;;;;;;;;;;;;;5075398;28;20040;-62
2022/09/08 09:36:07;;;;;;;5.15;4.85;;;;;;;;;;5074755;28;19982;-62
2022/09/08 09:38:38;;;;;;;6.43;5.80;;;;;;;;;;5056547;28;20484;-62
2022/09/08 09:41:13;;;;;;;6.00;5.40;;;;;;;;;;5056581;28;20044;-62
2022/09/08 09:44:11;;;;;;;6.28;5.68;;;;;;;;;;5057158;28;20473;-62
2022/09/08 09:46:36;;;;;;;5.95;5.45;;;;;;;;;;5040847;28;20495;-62
2022/09/08 09:49:12;;;;;;;6.38;5.68;;;;;;;;;;5074400;28;20023;-62
2022/09/08 09:51:56;;;;;;;6.22;5.60;;;;;;;;;;5074583;28;20025;-62
2022/09/08 09:54:57;;;;;;;6.07;5.57;;;;;;;;;;5074259;28;20039;-63
2022/09/08 09:57:22;;;;;;;6.40;5.53;;;;;;;;;;5012799;28;20040;-62
2022/09/08 09:59:57;;;;;;;7.30;5.40;;;;;;;;;;5061290;28;20028;-62
2022/09/08 10:02:41;;;;;;;8.93;5.72;;;;;;;;;;5074390;28;20460;-62
2022/09/08 10:05:24;;;;;;;5.80;5.38;;;;;;;;;;5074291;28;20020;-62
2022/09/08 10:08:06;;;;;;;7.00;5.95;;;;;;;;;;5074044;28;20032;-62
2022/09/08 10:10:41;;;;;;;8.77;5.93;;;;;;;;;;5074272;28;20033;-62
2022/09/08 10:13:09;;;;;;;8.77;6.68;;;;;;;;;;5074208;28;20025;-63
2022/09/08 10:15:47;;;;;;;7.95;6.38;;;;;;;;;;5074487;28;20021;-62
2022/09/08 10:18:31;;;;;;;8.90;6.65;;;;;;;;;;5073889;28;20029;-62
2022/09/08 10:21:14;;;;;;;12.18;6.50;;;;;;;;;;5074361;28;20103;-62
2022/09/08 10:23:58;;;;;;;10.57;6.35;;;;;;;;;;5073742;28;20391;-62
2022/09/08 10:26:42;;;;;;;6.97;6.13;;;;;;;;;;5056458;28;20024;-62
2022/09/08 10:29:27;;;;;;;10.90;7.07;;;;;;;;;;5055831;28;20392;-62
2022/09/08 10:32:11;;;;;;;8.80;7.00;;;;;;;;;;5073983;28;20036;-63
2022/09/08 10:34:45;;;;;;;7.35;6.53;;;;;;;;;;5073471;28;20020;-66
2022/09/08 10:37:30;;;;;;;9.80;7.43;;;;;;;;;;5055753;28;20048;-66
2022/09/08 10:40:10;;;;;;;12.70;6.85;;;;;;;;;;5073556;28;20083;-66
2022/09/08 10:42:36;;;;;;;;;;;;;;;;;;5074203;28;20119;-66
2022/09/08 10:45:21;;;;;;;9.35;7.47;;;;;;;;;;5073605;28;19951;-66
2022/09/08 10:47:55;;;;;;;8.80;6.30;;;;;;;;;;5038903;28;20476;-66
2022/09/08 10:50:28;;;;;;;7.68;6.53;;;;;;;;;;5073746;28;20103;-66
2022/09/08 10:52:54;;;;;;;7.32;6.63;;;;;;;;;;5073590;28;20060;-66
2022/09/08 10:55:28;;;;;;;7.40;6.80;;;;;;;;;;5073433;28;20059;-66
2022/09/08 10:57:53;;;;;;;11.07;7.05;;;;;;;;;;5055423;28;20071;-66
2022/09/08 11:00:19;;;;;;;8.18;6.82;;;;;;;;;;5073405;28;20060;-66
2022/09/08 11:02:51;;;;;;;7.80;6.75;;;;;;;;;;5073311;28;20033;-66
2022/09/08 11:05:31;;;;;;;7.53;6.82;;;;;;;;;;5073327;28;20029;-66
2022/09/08 11:07:57;;;;;;;8.95;7.13;;;;;;;;;;5073315;28;20075;-66
2022/09/08 11:10:51;;;;;;;8.68;7.25;;;;;;;;;;5055400;28;20457;-66
2022/09/08 11:13:20;;;;;;;10.75;7.82;;;;;;;;;;5018952;28;20132;-66
2022/09/08 11:15:53;;;;;;;10.25;6.78;;;;;;;;;;5038666;28;20052;-66
2022/09/08 11:18:19;;;;;;;9.63;7.38;;;;;;;;;;5073217;28;20036;-66
2022/09/08 11:20:52;;;;;;;9.50;7.27;;;;;;;;;;5073280;28;20020;-66
2022/09/08 11:23:36;;;;;;;10.27;7.60;;;;;;;;;;5073186;28;20428;-66
2022/09/08 11:26:20;;;;;;;7.22;6.53;;;;;;;;;;5073215;28;20071;-66
2022/09/08 11:28:53;;;;;;;8.52;6.97;;;;;;;;;;5073287;28;20024;-66
2022/09/08 11:31:32;;;;;;;7.90;6.57;;;;;;;;;;5073340;28;20024;-66
2022/09/08 11:34:16;;;;;;;7.00;6.32;;;;;;;;;;5073087;28;20040;-66
2022/09/08 11:36:44;;;;;;;7.72;6.68;;;;;;;;;;5073193;28;20151;-66
2022/09/08 11:39:16;;;;;;;8.95;7.50;;;;;;;;;;5073306;28;20170;-66
2022/09/08 11:41:47;;;;;;;8.75;7.57;;;;;;;;;;5073145;28;20039;-66
2022/09/08 11:44:15;;;;;;;7.40;6.70;;;;;;;;;;5076056;28;20496;-66
2022/09/08 11:46:49;;;;;;;8.68;7.45;;;;;;;;;;5076987;28;20452;-66
2022/09/08 11:49:24;;;;;;;13.32;7.97;;;;;;;;;;5058670;28;20032;-66
2022/09/08 11:51:59;;;;;;;6.82;5.93;;;;;;;;;;5076745;28;20146;-66
2022/09/08 11:54:43;;;;;;;9.43;7.82;;;;;;;;;;5058711;28;20047;-66
2022/09/08 11:57:08;;;;;;;9.38;7.88;;;;;;;;;;5076521;28;20029;-66
2022/09/08 11:59:53;;;;;;;7.95;7.15;;;;;;;;;;5058761;28;20476;-66
2022/09/08 12:02:18;;;;;;;13.65;7.50;;;;;;;;;;5076454;28;20032;-66
2022/09/08 12:04:58;;;;;;;7.95;7.22;;;;;;;;;;5076592;28;20032;-66
2022/09/08 12:07:43;;;;;;;8.15;7.00;;;;;;;;;;5076490;28;20043;-66
2022/09/08 12:10:12;;;;;;;11.13;7.80;;;;;;;;;;5058642;28;20039;-66
2022/09/08 12:12:56;;;;;;;7.82;7.07;;;;;;;;;;5058425;28;20021;-66
2022/09/08 12:15:28;;;;;;;7.93;6.80;;;;;;;;;;5074903;28;20035;-66
2022/09/08 12:18:05;;;;;;;10.65;7.70;;;;;;;;;;5076143;28;20063;-66
2022/09/08 12:20:50;;;;;;;9.38;7.40;;;;;;;;;;5076319;28;20032;-66
2022/09/08 12:23:22;;;;;;;12.15;7.45;;;;;;;;;;5076256;28;20115;-66
2022/09/08 12:25:57;;;;;;;11.27;8.18;;;;;;;;;;5058112;28;20086;-66
2022/09/08 12:28:22;;;;;;;14.35;8.45;;;;;;;;;;5075980;28;20465;-66
2022/09/08 12:31:11;;;;;;;8.68;7.90;;;;;;;;;;5075882;28;20028;-66
2022/09/08 12:33:39;;;;;;;9.27;7.68;;;;;;;;;;5075987;28;20392;-66
2022/09/08 12:36:12;;;;;;;9.32;8.27;;;;;;;;;;5075781;28;20036;-66
2022/09/08 12:38:56;;;;;;;9.25;8.32;;;;;;;;;;5075586;28;20079;-66
2022/09/08 12:41:22;;;;;;;11.13;8.70;;;;;;;;;;5075880;28;20060;-62
2022/09/08 12:43:47;;;;;;;11.80;9.05;;;;;;;;;;5075722;28;20510;-62
2022/09/08 12:46:13;;;;;;;13.88;9.52;;;;;;;;;;5075621;28;20047;-63
2022/09/08 12:48:57;;;;;;;16.70;9.32;;;;;;;;;;5075532;28;20017;-62
2022/09/08 12:51:28;;;;;;;10.50;9.43;;;;;;;;;;5057530;28;20419;-62
2022/09/08 12:53:57;;;;;;;12.25;9.32;;;;;;;;;;5075314;28;20051;-62
2022/09/08 12:56:22;;;;;;;13.25;10.02;;;;;;;;;;5075464;28;20020;-62
2022/09/08 12:58:53;;;;;;;11.55;9.73;;;;;;;;;;5075338;28;20365;-62
2022/09/08 13:01:22;;;;;;;10.85;8.95;;;;;;;;;;5057579;28;20370;-62
2022/09/08 13:03:47;;;;;;;13.48;10.10;;;;;;;;;;5075243;28;20020;-62
2022/09/08 13:06:19;;;;;;;12.93;7.63;;;;;;;;;;5075285;28;20592;-62
2022/09/08 13:08:44;;;;;;;12.15;10.13;;;;;;;;;;5075213;28;20369;-62
2022/09/08 13:11:12;;;;;;;13.25;9.52;;;;;;;;;;5075230;28;20027;-62
2022/09/08 13:13:41;;;;;;;13.30;10.45;;;;;;;;;;5075116;28;20040;-62
2022/09/08 13:16:07;;;;;;;12.45;10.13;;;;;;;;;;5074918;28;20472;-62
2022/09/08 13:18:51;;;;;;;10.80;9.75;;;;;;;;;;5073635;28;20082;-62
2022/09/08 13:21:19;;;;;;;11.93;10.32;;;;;;;;;;5075060;28;20112;-62
2022/09/08 13:23:46;;;;;;;14.73;10.82;;;;;;;;;;5074726;28;20456;-62
2022/09/08 13:26:16;;;;;;;11.70;9.95;;;;;;;;;;5056866;28;20468;-62
2022/09/08 13:28:50;;;;;;;11.55;9.88;;;;;;;;;;5056839;28;20028;-62
2022/09/08 13:31:34;;;;;;;14.93;10.23;;;;;;;;;;5074655;28;20107;-62
2022/09/08 13:34:07;;;;;;;14.07;10.60;;;;;;;;;;5074750;28;20067;-62
2022/09/08 13:36:53;;;;;;;12.50;10.43;;;;;;;;;;5074519;28;20487;-64
2022/09/08 13:39:26;;;;;;;13.85;10.32;;;;;;;;;;5074003;28;20049;-62
2022/09/08 13:41:59;;;;;;;12.15;10.55;;;;;;;;;;5074523;28;20033;-62
2022/09/08 13:44:33;;;;;;;11.73;10.52;;;;;;;;;;5074320;28;20435;-62
2022/09/08 13:47:08;;;;;;;15.73;11.07;;;;;;;;;;5056467;28;20396;-62
2022/09/08 13:49:37;;;;;;;11.18;9.93;;;;;;;;;;5074334;28;20036;-62
2022/09/08 13:52:11;;;;;;;12.40;10.15;;;;;;;;;;5074325;28;20042;-62
2022/09/08 13:54:40;;;;;;;15.82;10.30;;;;;;;;;;5074195;28;20033;-62
2022/09/08 13:57:15;;;;;;;14.30;10.45;;;;;;;;;;5074204;28;20016;-63
2022/09/08 14:00:00;;;;;;;13.40;10.43;;;;;;;;;;5074325;28;20472;-62
2022/09/08 14:02:26;;;;;;;12.32;10.20;;;;;;;;;;5074214;28;20028;-62
2022/09/08 14:04:56;;;;;;;10.68;9.45;;;;;;;;;;5074004;28;20563;-62
2022/09/08 14:07:24;;;;;;;13.35;9.80;;;;;;;;;;5055807;28;20028;-62
2022/09/08 14:10:08;;;;;;;15.15;10.65;;;;;;;;;;5074113;28;20443;-62
2022/09/08 14:12:34;;;;;;;11.82;10.73;;;;;;;;;;5074134;28;20055;-62
2022/09/08 14:15:19;;;;;;;11.13;10.13;;;;;;;;;;5055893;28;20476;-62
2022/09/08 14:17:51;;;;;;;12.13;10.23;;;;;;;;;;5055915;28;20036;-62
2022/09/08 14:20:28;;;;;;;12.32;10.63;;;;;;;;;;5073885;28;20036;-62
2022/09/08 14:23:03;;;;;;;12.23;11.00;;;;;;;;;;5073827;28;20121;-62
2022/09/08 14:25:29;;;;;;;12.68;11.18;;;;;;;;;;5073805;28;20040;-66
2022/09/08 14:28:13;;;;;;;15.20;10.98;;;;;;;;;;5073699;28;20029;-66
2022/09/08 14:30:41;;;;;;;11.18;10.15;;;;;;;;;;5073833;28;20070;-66
2022/09/08 14:33:12;;;;;;;10.82;9.90;;;;;;;;;;5073947;28;20020;-66
2022/09/08 14:35:48;;;;;;;10.98;9.75;;;;;;;;;;5073723;28;20027;-66
2022/09/08 14:38:20;;;;;;;12.13;10.93;;;;;;;;;;5073477;28;20040;-66
2022/09/08 14:40:49;;;;;;;13.38;11.35;;;;;;;;;;5055793;28;20468;-66
2022/09/08 14:43:23;;;;;;;11.98;10.88;;;;;;;;;;5073538;28;20016;-66
2022/09/08 14:45:58;;;;;;;11.85;10.38;;;;;;;;;;5073498;28;20109;-66
2022/09/08 14:48:28;;;;;;;12.23;10.57;;;;;;;;;;5073574;28;20476;-66
2022/09/08 14:50:56;;;;;;;12.10;10.85;;;;;;;;;;5073585;28;20154;-66
2022/09/08 14:53:34;;;;;;;11.10;9.90;;;;;;;;;;5055567;28;20029;-66
2022/09/08 14:56:18;;;;;;;12.38;11.07;;;;;;;;;;5073757;28;20030;-66
2022/09/08 14:59:04;;;;;;;17.73;11.48;;;;;;;;;;5073463;28;20096;-66
2022/09/08 15:01:32;;;;;;;13.73;11.35;;;;;;;;;;5055465;28;20121;-66
2022/09/08 15:04:01;;;;;;;12.65;11.35;;;;;;;;;;5073300;28;20029;-66
2022/09/08 15:06:35;;;;;;;15.63;11.90;;;;;;;;;;5073333;28;20036;-66